Time;durP1;ratioP1;P1;durP2;ratioP2;P2;SDS_P1;SDS_P2;PMS_P1;PMS_P2;Temp;Humidity;BMP_temperature;BMP_pressure;BME280_temperature;BME280_humidity;BME280_pressure;Samples;Min_cycle;Max_cycle;Signal;HPM_P1;HPM_P2
2023/09/02 00:01:30;;;;;;;;;;;;;;;-147.27;100.00;65176.34;5118847;28;19916;-59
2023/09/02 00:03:56;;;;;;;;;;;;;;;-147.27;100.00;65176.34;5119133;28;19916;-59
2023/09/02 00:06:22;;;;;;;;;;;;;;;-147.27;100.00;65176.34;5116923;28;19916;-57
2023/09/02 00:08:48;;;;;;;;;;;;;;;-147.27;100.00;65176.34;5119115;28;19920;-55
2023/09/02 00:11:13;;;;;;;;;;;;;;;-147.27;100.00;65176.34;5125650;28;19984;-59
2023/09/02 00:13:39;;;;;;;;;;;;;;;-147.27;100.00;65176.34;5118975;28;19900;-58
2023/09/02 00:16:04;;;;;;;;;;;;;;;-147.27;100.00;65176.34;5100514;28;19971;-59
2023/09/02 00:18:30;;;;;;;;;;;;;;;-147.27;100.00;65176.34;5118935;28;19946;-55
2023/09/02 00:20:57;;;;;;;;;;;;;;;-147.27;100.00;65176.34;5122338;28;19916;-56
2023/09/02 00:23:22;;;;;;;;;;;;;;;-147.27;100.00;65176.34;5118704;28;19916;-57
2023/09/02 00:25:48;;;;;;;;;;;;;;;-147.27;100.00;65176.34;5118304;28;19948;-57
2023/09/02 00:28:13;;;;;;;;;;;;;;;-147.27;100.00;65176.34;5118530;28;20052;-57
2023/09/02 00:30:39;;;;;;;;;;;;;;;-147.27;100.00;65176.34;5101533;28;19916;-57
2023/09/02 00:33:04;;;;;;;;;;;;;;;-147.27;100.00;65176.34;5125582;28;19959;-54
2023/09/02 00:35:30;;;;;;;;;;;;;;;-147.27;100.00;65176.34;5118289;28;19920;-57
2023/09/02 00:37:55;;;;;;;;;;;;;;;-147.27;100.00;65176.34;5100565;28;19976;-59
2023/09/02 00:40:22;;;;;;;;;;;;;;;-147.27;100.00;65176.34;5100485;28;19920;-58
2023/09/02 00:42:49;;;;;;;;;;;;;;;-147.27;100.00;65176.34;5121837;28;19943;-56
2023/09/02 00:45:15;;;;;;;;;;;;;;;-147.27;100.00;65176.34;5117178;28;19934;-57
2023/09/02 00:47:42;;;;;;;;;;;;;;;-147.27;100.00;65176.34;5134167;28;19987;-57
2023/09/02 00:50:07;;;;;;;;;;;;;;;-147.27;100.00;65176.34;5118356;28;19923;-58
2023/09/02 00:52:33;;;;;;;;;;;;;;;-147.27;100.00;65176.34;5118366;28;19924;-55
2023/09/02 00:54:59;;;;;;;;;;;;;;;-147.27;100.00;65176.34;5117969;28;19971;-53
2023/09/02 00:57:25;;;;;;;;;;;;;;;-147.27;100.00;65176.34;5134249;27;19916;-55
2023/09/02 00:59:51;;;;;;;;;;;;;;;-147.27;100.00;65176.34;5117629;28;19922;-57
2023/09/02 01:02:17;;;;;;;;;;;;;;;-147.27;100.00;65176.34;5130955;28;19916;-57
2023/09/02 01:04:42;;;;;;;;;;;;;;;-147.27;100.00;65176.34;5136541;27;19941;-55
2023/09/02 01:07:08;;;;;;;;;;;;;;;-147.27;100.00;65176.34;5117893;28;19994;-55
2023/09/02 01:09:33;;;;;;;;;;;;;;;-147.27;100.00;65176.34;5099677;28;19912;-56
2023/09/02 01:11:59;;;;;;;;;;;;;;;-147.27;100.00;65176.34;5124359;28;19920;-59
2023/09/02 01:14:24;;;;;;;;;;;;;;;-147.27;100.00;65176.34;5136568;27;19923;-58
2023/09/02 01:16:50;;;;;;;;;;;;;;;-147.27;100.00;65176.34;5134059;28;19916;-56
2023/09/02 01:19:16;;;;;;;;;;;;;;;-147.27;100.00;65176.34;5133483;28;19920;-58
2023/09/02 01:21:42;;;;;;;;;;;;;;;-147.27;100.00;65176.34;5117588;28;19987;-59
2023/09/02 01:24:13;;;;;;;;;;;;;;;-147.27;100.00;65176.34;5099530;28;19916;-59
2023/09/02 01:26:58;;;;;;;;;;;;;;;-147.27;100.00;65176.34;5099872;28;19912;-58
2023/09/02 01:29:27;;;;;;;;;;;;;;;-147.27;100.00;65176.34;5086996;28;19916;-58
2023/09/02 01:31:54;;;;;;;;;;;;;;;-147.27;100.00;65176.34;5107312;28;20132;-57
2023/09/02 01:34:21;;;;;;;;;;;;;;;-147.27;100.00;65176.34;5117145;28;19923;-57
2023/09/02 01:36:50;;;;;;;;;;;;;;;-147.27;100.00;65176.34;5117068;28;19927;-58
2023/09/02 01:39:16;;;;;;;;;;;;;;;-147.27;100.00;65176.34;5133426;28;19920;-57
2023/09/02 01:41:43;;;;;;;;;;;;;;;-147.27;100.00;65176.34;5117091;28;19927;-59
2023/09/02 01:44:10;;;;;;;;;;;;;;;-147.27;100.00;65176.34;5128007;28;19916;-57
2023/09/02 01:46:37;;;;;;;;;;;;;;;-147.27;100.00;65176.34;5117182;28;19933;-57
2023/09/02 01:49:03;;;;;;;;;;;;;;;-147.27;100.00;65176.34;5116929;28;19937;-58
2023/09/02 01:51:29;;;;;;;;;;;;;;;-147.27;100.00;65176.34;5118640;28;19924;-56
2023/09/02 01:53:54;;;;;;;;;;;;;;;-147.27;100.00;65176.34;5116751;28;19920;-57
2023/09/02 01:56:21;;;;;;;;;;;;;;;-147.27;100.00;65176.34;5116298;28;19924;-57
2023/09/02 01:58:49;;;;;;;;;;;;;;;-147.27;100.00;65176.34;5099074;28;19916;-57
2023/09/02 02:01:14;;;;;;;;;;;;;;;-147.27;100.00;65176.34;5134753;28;19920;-59
2023/09/02 02:03:43;;;;;;;;;;;;;;;-147.27;100.00;65176.34;5126992;28;19923;-56
2023/09/02 02:06:10;;;;;;;;;;;;;;;-147.27;100.00;65176.34;5132782;28;19923;-58
2023/09/02 02:08:55;;;;;;;;;;;;;;;-147.27;100.00;65176.34;5116679;28;19915;-55
2023/09/02 02:11:22;;;;;;;;;;;;;;;-147.27;100.00;65176.34;5116364;28;19924;-57
2023/09/02 02:13:49;;;;;;;;;;;;;;;-147.27;100.00;65176.34;5117660;28;19951;-57
2023/09/02 02:16:17;;;;;;;;;;;;;;;-147.27;100.00;65176.34;5116195;28;20007;-58
2023/09/02 02:18:42;;;;;;;;;;;;;;;-147.27;100.00;65176.34;5118892;28;19920;-57
2023/09/02 02:21:08;;;;;;;;;;;;;;;-147.27;100.00;65176.34;5115964;28;19912;-58
2023/09/02 02:23:34;;;;;;;;;;;;;;;-147.27;100.00;65176.34;5150870;27;19987;-54
2023/09/02 02:26:04;;;;;;;;;;;;;;;-147.27;100.00;65176.34;5110960;28;19951;-57
2023/09/02 02:28:30;;;;;;;;;;;;;;;-147.27;100.00;65176.34;5116210;28;19951;-56
2023/09/02 02:30:56;;;;;;;;;;;;;;;-147.27;100.00;65176.34;5103001;28;19916;-58
2023/09/02 02:33:22;;;;;;;;;;;;;;;-147.27;100.00;65176.34;5140928;27;19927;-56
2023/09/02 02:35:48;;;;;;;;;;;;;;;-147.27;100.00;65176.34;5132215;28;20003;-56
2023/09/02 02:38:13;;;;;;;;;;;;;;;-147.27;100.00;65176.34;5115934;28;19920;-57
2023/09/02 02:40:39;;;;;;;;;;;;;;;-147.27;100.00;65176.34;5116094;28;19979;-57
2023/09/02 02:43:05;;;;;;;;;;;;;;;-147.27;100.00;65176.34;5130821;27;19916;-55
2023/09/02 02:45:30;;;;;;;;;;;;;;;-147.27;100.00;65176.34;5102219;28;19920;-55
2023/09/02 02:47:56;;;;;;;;;;;;;;;-147.27;100.00;65176.34;5132067;28;19916;-58
2023/09/02 02:50:22;;;;;;;;;;;;;;;-147.27;100.00;65176.34;5102328;28;19920;-57
2023/09/02 02:52:48;;;;;;;;;;;;;;;-147.27;100.00;65176.34;5134325;28;19920;-57
2023/09/02 02:55:14;;;;;;;;;;;;;;;-147.27;100.00;65176.34;5115689;28;19941;-59
2023/09/02 02:57:41;;;;;;;;;;;;;;;-147.27;100.00;65176.34;5097733;28;19923;-58
2023/09/02 03:00:08;;;;;;;;;;;;;;;-147.27;100.00;65176.34;5132043;28;20012;-58
2023/09/02 03:02:35;;;;;;;;;;;;;;;-147.27;100.00;65176.34;5115525;28;19923;-58
2023/09/02 03:05:00;;;;;;;;;;;;;;;-147.27;100.00;65176.34;5110782;28;19916;-55
2023/09/02 03:07:27;;;;;;;;;;;;;;;-147.27;100.00;65176.34;5131770;28;19916;-58
2023/09/02 03:09:53;;;;;;;;;;;;;;;-147.27;100.00;65176.34;5097319;28;19922;-56
2023/09/02 03:12:19;;;;;;;;;;;;;;;-147.27;100.00;65176.34;5097606;28;19920;-55
2023/09/02 03:14:47;;;;;;;;;;;;;;;-147.27;100.00;65176.34;5097721;28;19923;-56
2023/09/02 03:17:13;;;;;;;;;;;;;;;-147.27;100.00;65176.34;5097742;28;19916;-57
2023/09/02 03:19:43;;;;;;;;;;;;;;;-147.27;100.00;65176.34;5097733;28;19916;-57
2023/09/02 03:22:09;;;;;;;;;;;;;;;-147.27;100.00;65176.34;5132713;28;19916;-54
2023/09/02 03:24:35;;;;;;;;;;;;;;;-147.27;100.00;65176.34;5097909;28;19917;-57
2023/09/02 03:27:03;;;;;;;;;;;;;;;-147.27;100.00;65176.34;5131521;28;19937;-59
2023/09/02 03:29:28;;;;;;;;;;;;;;;-147.27;100.00;65176.34;5131201;28;19920;-56
2023/09/02 03:31:54;;;;;;;;;;;;;;;-147.27;100.00;65176.34;5113477;28;19924;-56
2023/09/02 03:34:20;;;;;;;;;;;;;;;-147.27;100.00;65176.34;5122622;28;19946;-55
2023/09/02 03:36:45;;;;;;;;;;;;;;;-147.27;100.00;65176.34;5097542;28;19916;-55
2023/09/02 03:39:11;;;;;;;;;;;;;;;-147.27;100.00;65176.34;5104374;28;19923;-58
2023/09/02 03:41:37;;;;;;;;;;;;;;;-147.27;100.00;65176.34;5115379;28;19975;-58
2023/09/02 03:44:03;;;;;;;;;;;;;;;-147.27;100.00;65176.34;5138931;28;19923;-58
2023/09/02 03:46:29;;;;;;;;;;;;;;;-147.27;100.00;65176.34;5115123;28;19916;-57
2023/09/02 03:48:56;;;;;;;;;;;;;;;-147.27;100.00;65176.34;5131360;28;19923;-56
2023/09/02 03:51:23;;;;;;;;;;;;;;;-147.27;100.00;65176.34;5130980;28;19927;-54
2023/09/02 03:53:55;;;;;;;;;;;;;;;-147.27;100.00;65176.34;5138083;28;19986;-55
2023/09/02 03:56:20;;;;;;;;;;;;;;;-147.27;100.00;65176.34;5135040;28;20330;-56
2023/09/02 03:58:46;;;;;;;;;;;;;;;-147.27;100.00;65176.34;5115180;28;19916;-59
2023/09/02 04:01:13;;;;;;;;;;;;;;;-147.27;100.00;65176.34;5114925;28;19916;-56
2023/09/02 04:03:39;;;;;;;;;;;;;;;-147.27;100.00;65176.34;5134800;28;19923;-57
2023/09/02 04:06:08;;;;;;;;;;;;;;;-147.27;100.00;65176.34;5133702;28;19916;-57
2023/09/02 04:08:36;;;;;;;;;;;;;;;-147.27;100.00;65176.34;5115026;28;19923;-56
2023/09/02 04:11:02;;;;;;;;;;;;;;;-147.27;100.00;65176.34;5097176;28;19926;-58
2023/09/02 04:13:28;;;;;;;;;;;;;;;-147.27;100.00;65176.34;5122791;28;19955;-58
2023/09/02 04:15:56;;;;;;;;;;;;;;;-147.27;100.00;65176.34;5104672;28;20386;-57
2023/09/02 04:18:23;;;;;;;;;;;;;;;-147.27;100.00;65176.34;5131040;28;19916;-57
2023/09/02 04:20:49;;;;;;;;;;;;;;;-147.27;100.00;65176.34;5099614;28;19922;-59
2023/09/02 04:23:15;;;;;;;;;;;;;;;-147.27;100.00;65176.34;5118594;28;19920;-55
2023/09/02 04:25:46;;;;;;;;;;;;;;;-147.27;100.00;65176.34;5119568;28;19920;-54
2023/09/02 04:28:14;;;;;;;;;;;;;;;-147.27;100.00;65176.34;5118140;28;19940;-56
2023/09/02 04:30:40;;;;;;;;;;;;;;;-147.27;100.00;65176.34;5118472;28;19916;-56
2023/09/02 04:33:06;;;;;;;;;;;;;;;-147.27;100.00;65176.34;5134792;27;19920;-58
2023/09/02 04:35:38;;;;;;;;;;;;;;;-147.27;100.00;65176.34;5146412;27;19944;-58
2023/09/02 04:38:04;;;;;;;;;;;;;;;-147.27;100.00;65176.34;5118117;28;20367;-57
2023/09/02 04:40:29;;;;;;;;;;;;;;;-147.27;100.00;65176.34;5100647;28;19943;-57
2023/09/02 04:42:56;;;;;;;;;;;;;;;-147.27;100.00;65176.34;5118416;28;19927;-58
2023/09/02 04:45:22;;;;;;;;;;;;;;;-147.27;100.00;65176.34;5118072;28;19923;-58
2023/09/02 04:47:48;;;;;;;;;;;;;;;-147.27;100.00;65176.34;5100489;28;20391;-58
2023/09/02 04:50:14;;;;;;;;;;;;;;;-147.27;100.00;65176.34;5118016;28;19983;-57
2023/09/02 04:52:44;;;;;;;;;;;;;;;-147.27;100.00;65176.34;5134214;28;19931;-58
2023/09/02 04:55:10;;;;;;;;;;;;;;;-147.27;100.00;65176.34;5130479;28;19991;-55
2023/09/02 04:57:36;;;;;;;;;;;;;;;-147.27;100.00;65176.34;5117990;28;19938;-58
2023/09/02 05:00:03;;;;;;;;;;;;;;;-147.27;100.00;65176.34;5112278;28;19916;-55
2023/09/02 05:02:29;;;;;;;;;;;;;;;-147.27;100.00;65176.34;5100247;28;19916;-57
2023/09/02 05:04:54;;;;;;;;;;;;;;;-147.27;100.00;65176.34;5107498;28;19939;-57
2023/09/02 05:07:20;;;;;;;;;;;;;;;-147.27;100.00;65176.34;5107290;28;19924;-54
2023/09/02 05:09:46;;;;;;;;;;;;;;;-147.27;100.00;65176.34;5091547;28;19917;-54
2023/09/02 05:12:12;;;;;;;;;;;;;;;-147.27;100.00;65176.34;5130094;28;19931;-55
2023/09/02 05:14:39;;;;;;;;;;;;;;;-147.27;100.00;65176.34;5117668;28;19916;-57
2023/09/02 05:17:04;;;;;;;;;;;;;;;-147.27;100.00;65176.34;5099885;28;19955;-57
2023/09/02 05:19:30;;;;;;;;;;;;;;;-147.27;100.00;65176.34;5116759;28;19928;-56
2023/09/02 05:21:57;;;;;;;;;;;;;;;-147.27;100.00;65176.34;5133985;28;19920;-57
2023/09/02 05:24:23;;;;;;;;;;;;;;;-147.27;100.00;65176.34;5137241;27;19916;-57
2023/09/02 05:26:48;;;;;;;;;;;;;;;-147.27;100.00;65176.34;5099854;28;19922;-59
2023/09/02 05:29:14;;;;;;;;;;;;;;;-147.27;100.00;65176.34;5117275;28;19943;-58
2023/09/02 05:31:39;;;;;;;;;;;;;;;-147.27;100.00;65176.34;5116411;28;19920;-58
2023/09/02 05:34:05;;;;;;;;;;;;;;;-147.27;100.00;65176.34;5117275;28;19916;-58
2023/09/02 05:36:30;;;;;;;;;;;;;;;-147.27;100.00;65176.34;5123205;28;19916;-59
2023/09/02 05:38:56;;;;;;;;;;;;;;;-147.27;100.00;65176.34;5116935;28;19938;-59
2023/09/02 05:41:24;;;;;;;;;;;;;;;-147.27;100.00;65176.34;5117227;28;19988;-59
2023/09/02 05:43:49;;;;;;;;;;;;;;;-147.27;100.00;65176.34;5120269;28;19916;-59
2023/09/02 05:46:15;;;;;;;;;;;;;;;-147.27;100.00;65176.34;5120340;28;19920;-57
2023/09/02 05:48:40;;;;;;;;;;;;;;;-147.27;100.00;65176.34;5113634;28;19916;-57
2023/09/02 05:51:06;;;;;;;;;;;;;;;-147.27;100.00;65176.34;5116663;28;20398;-57
2023/09/02 05:53:31;;;;;;;;;;;;;;;-147.27;100.00;65176.34;5103475;28;19924;-58
2023/09/02 05:55:57;;;;;;;;;;;;;;;-147.27;100.00;65176.34;5129622;28;19927;-57
2023/09/02 05:58:24;;;;;;;;;;;;;;;-147.27;100.00;65176.34;5103871;28;19920;-59
2023/09/02 06:00:49;;;;;;;;;;;;;;;-147.27;100.00;65176.34;5115393;28;19951;-58
2023/09/02 06:03:15;;;;;;;;;;;;;;;-147.27;100.00;65176.34;5116608;28;19942;-57
2023/09/02 06:05:40;;;;;;;;;;;;;;;-147.27;100.00;65176.34;5122351;28;19916;-56
2023/09/02 06:08:06;;;;;;;;;;;;;;;-147.27;100.00;65176.34;5116707;28;19927;-57
2023/09/02 06:10:31;;;;;;;;;;;;;;;-147.27;100.00;65176.34;5116155;28;19925;-59
2023/09/02 06:12:57;;;;;;;;;;;;;;;-147.27;100.00;65176.34;5116426;28;19991;-58
2023/09/02 06:15:22;;;;;;;;;;;;;;;-147.27;100.00;65176.34;5118259;28;19923;-57
2023/09/02 06:17:48;;;;;;;;;;;;;;;-147.27;100.00;65176.34;5116002;28;19923;-59
2023/09/02 06:20:16;;;;;;;;;;;;;;;-147.27;100.00;65176.34;5114239;28;19923;-58
2023/09/02 06:22:41;;;;;;;;;;;;;;;-147.27;100.00;65176.34;5104313;28;19923;-59
2023/09/02 06:25:07;;;;;;;;;;;;;;;-147.27;100.00;65176.34;5116544;28;19916;-59
2023/09/02 06:27:32;;;;;;;;;;;;;;;-147.27;100.00;65176.34;5108373;28;19930;-57
2023/09/02 06:29:58;;;;;;;;;;;;;;;-147.27;100.00;65176.34;5116064;28;19938;-58
2023/09/02 06:32:24;;;;;;;;;;;;;;;-147.27;100.00;65176.34;5115389;28;19977;-57
2023/09/02 06:34:50;;;;;;;;;;;;;;;-147.27;100.00;65176.34;5123616;28;19923;-57
2023/09/02 06:37:15;;;;;;;;;;;;;;;-147.27;100.00;65176.34;5111902;28;19939;-57
2023/09/02 06:39:41;;;;;;;;;;;;;;;-147.27;100.00;65176.34;5116056;28;19932;-55
2023/09/02 06:42:06;;;;;;;;;;;;;;;-147.27;100.00;65176.34;5115656;28;19916;-57
2023/09/02 06:44:34;;;;;;;;;;;;;;;-147.27;100.00;65176.34;5135803;27;19947;-59
2023/09/02 06:47:00;;;;;;;;;;;;;;;-147.27;100.00;65176.34;5105849;28;19927;-59
2023/09/02 06:49:25;;;;;;;;;;;;;;;-147.27;100.00;65176.34;5115901;28;19990;-58
2023/09/02 06:51:51;;;;;;;;;;;;;;;-147.27;100.00;65176.34;5109166;28;19986;-59
2023/09/02 06:54:16;;;;;;;;;;;;;;;-147.27;100.00;65176.34;5108753;28;19930;-58
2023/09/02 06:56:42;;;;;;;;;;;;;;;-147.27;100.00;65176.34;5123806;28;19919;-57
2023/09/02 06:59:07;;;;;;;;;;;;;;;-147.27;100.00;65176.34;5115518;28;19992;-60
2023/09/02 07:01:32;;;;;;;;;;;;;;;-147.27;100.00;65176.34;5111093;28;19916;-58
2023/09/02 07:03:58;;;;;;;;;;;;;;;-147.27;100.00;65176.34;5115551;28;19987;-57
2023/09/02 07:06:24;;;;;;;;;;;;;;;-147.27;100.00;65176.34;5118834;28;19916;-57
2023/09/02 07:08:49;;;;;;;;;;;;;;;-147.27;100.00;65176.34;5115512;28;19916;-57
2023/09/02 07:11:15;;;;;;;;;;;;;;;-147.27;100.00;65176.34;5114908;28;19951;-58
2023/09/02 07:13:45;;;;;;;;;;;;;;;-147.27;100.00;65176.34;5115448;28;19924;-57
2023/09/02 07:16:11;;;;;;;;;;;;;;;-147.27;100.00;65176.34;5111000;28;19916;-56
2023/09/02 07:18:36;;;;;;;;;;;;;;;-147.27;100.00;65176.34;5100952;28;19938;-58
2023/09/02 07:21:03;;;;;;;;;;;;;;;-147.27;100.00;65176.34;5109033;28;19979;-58
2023/09/02 07:23:29;;;;;;;;;;;;;;;-147.27;100.00;65176.34;5094747;28;19920;-58
2023/09/02 07:25:59;;;;;;;;;;;;;;;-147.27;100.00;65176.34;5111168;28;19916;-57
2023/09/02 07:28:25;;;;;;;;;;;;;;;-147.27;100.00;65176.34;5106923;28;19920;-57
2023/09/02 07:30:50;;;;;;;;;;;;;;;-147.27;100.00;65176.34;5114458;28;19938;-55
2023/09/02 07:33:16;;;;;;;;;;;;;;;-147.27;100.00;65176.34;5115162;28;19920;-53
2023/09/02 07:35:41;;;;;;;;;;;;;;;-147.27;100.00;65176.34;5111564;28;19975;-60
2023/09/02 07:38:07;;;;;;;;;;;;;;;-147.27;100.00;65176.34;5119832;28;19935;-57
2023/09/02 07:40:32;;;;;;;;;;;;;;;-147.27;100.00;65176.34;5114120;28;19922;-57
2023/09/02 07:43:00;;;;;;;;;;;;;;;-147.27;100.00;65176.34;5114450;28;20580;-50
2023/09/02 07:45:26;;;;;;;;;;;;;;;-147.27;100.00;65176.34;5111990;28;19919;-50
2023/09/02 07:47:51;;;;;;;;;;;;;;;-147.27;100.00;65176.34;5118570;28;19920;-51
2023/09/02 07:50:16;;;;;;;;;;;;;;;-147.27;100.00;65176.34;5114725;28;19934;-49
2023/09/02 07:52:42;;;;;;;;;;;;;;;-147.27;100.00;65176.34;5114901;28;19964;-54
2023/09/02 07:55:07;;;;;;;;;;;;;;;-147.27;100.00;65176.34;5118496;28;19922;-55
2023/09/02 07:57:33;;;;;;;;;;;;;;;-147.27;100.00;65176.34;5124348;28;19916;-50
2023/09/02 07:59:59;;;;;;;;;;;;;;;-147.27;100.00;65176.34;5117624;28;19941;-54
2023/09/02 08:02:25;;;;;;;;;;;;;;;-147.27;100.00;65176.34;5123166;28;19920;-51
2023/09/02 08:04:50;;;;;;;;;;;;;;;-147.27;100.00;65176.34;5119213;28;19922;-52
2023/09/02 08:07:16;;;;;;;;;;;;;;;-147.27;100.00;65176.34;5118856;28;19915;-53
2023/09/02 08:09:41;;;;;;;;;;;;;;;-147.27;100.00;65176.34;5119042;28;19919;-54
2023/09/02 08:12:08;;;;;;;;;;;;;;;-147.27;100.00;65176.34;5118790;28;19920;-53
2023/09/02 08:14:33;;;;;;;;;;;;;;;-147.27;100.00;65176.34;5118949;28;19916;-53
2023/09/02 08:16:59;;;;;;;;;;;;;;;-147.27;100.00;65176.34;5126915;28;19920;-48
2023/09/02 08:19:24;;;;;;;;;;;;;;;-147.27;100.00;65176.34;5119703;28;19947;-50
2023/09/02 08:21:50;;;;;;;;;;;;;;;-147.27;100.00;65176.34;5118170;28;19976;-49
2023/09/02 08:24:15;;;;;;;;;;;;;;;-147.27;100.00;65176.34;5118439;28;19916;-54
2023/09/02 08:26:41;;;;;;;;;;;;;;;-147.27;100.00;65176.34;5123323;28;19923;-52
2023/09/02 08:29:06;;;;;;;;;;;;;;;-147.27;100.00;65176.34;5119956;28;19920;-49
2023/09/02 08:31:32;;;;;;;;;;;;;;;-147.27;100.00;65176.34;5112826;28;19921;-55
2023/09/02 08:33:57;;;;;;;;;;;;;;;-147.27;100.00;65176.34;5115735;28;19995;-56
2023/09/02 08:36:23;;;;;;;;;;;;;;;-147.27;100.00;65176.34;5118071;28;19920;-55
2023/09/02 08:38:48;;;;;;;;;;;;;;;-147.27;100.00;65176.34;5115313;28;19938;-53
2023/09/02 08:41:19;;;;;;;;;;;;;;;-147.27;100.00;65176.34;5117480;28;19937;-57
2023/09/02 08:43:44;;;;;;;;;;;;;;;-147.27;100.00;65176.34;5111892;28;19917;-58
2023/09/02 08:46:10;;;;;;;;;;;;;;;-147.27;100.00;65176.34;5121141;28;19963;-58
2023/09/02 08:48:40;;;;;;;;;;;;;;;-147.27;100.00;65176.34;5112984;28;19923;-54
2023/09/02 08:51:06;;;;;;;;;;;;;;;-147.27;100.00;65176.34;5117683;28;19938;-58
2023/09/02 08:53:32;;;;;;;;;;;;;;;-147.27;100.00;65176.34;5117818;28;19924;-57
2023/09/02 08:55:59;;;;;;;;;;;;;;;-147.27;100.00;65176.34;5116944;28;19927;-57
2023/09/02 08:58:25;;;;;;;;;;;;;;;-147.27;100.00;65176.34;5116887;28;19995;-58
2023/09/02 09:00:51;;;;;;;;;;;;;;;-147.27;100.00;65176.34;5117553;28;19916;-59
2023/09/02 09:03:19;;;;;;;;;;;;;;;-147.27;100.00;65176.34;5117502;28;19981;-58
2023/09/02 09:05:45;;;;;;;;;;;;;;;-147.27;100.00;65176.34;5117675;28;19926;-57
2023/09/02 09:08:12;;;;;;;;;;;;;;;-147.27;100.00;65176.34;5116388;28;19938;-58
2023/09/02 09:10:38;;;;;;;;;;;;;;;-147.27;100.00;65176.34;5118019;28;19912;-57
2023/09/02 09:13:05;;;;;;;;;;;;;;;-147.27;100.00;65176.34;5116024;28;19920;-58
2023/09/02 09:15:32;;;;;;;;;;;;;;;-147.27;100.00;65176.34;5112749;28;19912;-60
2023/09/02 09:17:58;;;;;;;;;;;;;;;-147.27;100.00;65176.34;5117389;28;19916;-58
2023/09/02 09:20:24;;;;;;;;;;;;;;;-147.27;100.00;65176.34;5114245;28;19938;-59
2023/09/02 09:22:50;;;;;;;;;;;;;;;-147.27;100.00;65176.34;5106016;28;19917;-56
2023/09/02 09:25:16;;;;;;;;;;;;;;;-147.27;100.00;65176.34;5100684;28;19923;-58
2023/09/02 09:27:41;;;;;;;;;;;;;;;-147.27;100.00;65176.34;5118687;28;19919;-60
2023/09/02 09:30:25;;;;;;;;;;;;;;;-147.27;100.00;65176.34;5109940;28;19962;-59
2023/09/02 09:33:01;;;;;;;;;;;;;;;-147.27;100.00;65176.34;5106085;28;19920;-60
2023/09/02 09:35:26;;;;;;;;;;;;;;;-147.27;100.00;65176.34;5116144;28;19916;-56
2023/09/02 09:37:56;;;;;;;;;;;;;;;-147.27;100.00;65176.34;5119969;28;19976;-57
2023/09/02 09:40:31;;;;;;;;;;;;;;;-147.27;100.00;65176.34;5116932;28;19931;-53
2023/09/02 09:42:58;;;;;;;;;;;;;;;-147.27;100.00;65176.34;5116038;28;19999;-53
2023/09/02 09:45:23;;;;;;;;;;;;;;;-147.27;100.00;65176.34;5116327;28;19916;-51
2023/09/02 09:47:49;;;;;;;;;;;;;;;-147.27;100.00;65176.34;5122484;28;19923;-55
2023/09/02 09:50:15;;;;;;;;;;;;;;;-147.27;100.00;65176.34;5116584;28;19916;-51
2023/09/02 09:52:43;;;;;;;;;;;;;;;-147.27;100.00;65176.34;5125977;28;19995;-54
2023/09/02 09:55:21;;;;;;;;;;;;;;;-147.27;100.00;65176.34;5102874;28;19984;-51
2023/09/02 09:57:51;;;;;;;;;;;;;;;-147.27;100.00;65176.34;5114403;28;19937;-54
2023/09/02 10:00:17;;;;;;;;;;;;;;;-147.27;100.00;65176.34;5115315;28;19945;-52
2023/09/02 10:02:49;;;;;;;;;;;;;;;-147.27;100.00;65176.34;5115829;28;19916;-53
2023/09/02 10:05:22;;;;;;;;;;;;;;;-147.27;100.00;65176.34;5115946;28;19943;-54
2023/09/02 10:07:56;;;;;;;;;;;;;;;-147.27;100.00;65176.34;5123768;28;19919;-56
2023/09/02 10:10:26;;;;;;;;;;;;;;;-147.27;100.00;65176.34;5109805;28;19928;-63
2023/09/02 10:12:54;;;;;;;;;;;;;;;-147.27;100.00;65176.34;5111513;28;19927;-62
2023/09/02 10:15:24;;;;;;;;;;;;;;;-147.27;100.00;65176.34;5110451;28;19916;-63
2023/09/02 10:18:03;;;;;;;;;;;;;;;-147.27;100.00;65176.34;5126140;28;19915;-63
2023/09/02 10:20:29;;;;;;;;;;;;;;;-147.27;100.00;65176.34;5116240;28;19979;-63
2023/09/02 10:23:04;;;;;;;;;;;;;;;-147.27;100.00;65176.34;5117519;28;19920;-63
2023/09/02 10:25:34;;;;;;;;;;;;;;;-147.27;100.00;65176.34;5102115;28;19948;-62
2023/09/02 10:28:02;;;;;;;;;;;;;;;-147.27;100.00;65176.34;5108054;28;19912;-62
2023/09/02 10:30:31;;;;;;;;;;;;;;;-147.27;100.00;65176.34;5115304;28;19922;-62
2023/09/02 10:33:03;;;;;;;;;;;;;;;-147.27;100.00;65176.34;5115835;28;19927;-63
2023/09/02 10:35:28;;;;;;;;;;;;;;;-147.27;100.00;65176.34;5114182;28;19916;-63
2023/09/02 10:37:55;;;;;;;;;;;;;;;-147.27;100.00;65176.34;5115059;28;19943;-63
2023/09/02 10:40:23;;;;;;;;;;;;;;;-147.27;100.00;65176.34;5109672;28;19916;-62
2023/09/02 10:42:49;;;;;;;;;;;;;;;-147.27;100.00;65176.34;5112387;28;19942;-62
2023/09/02 10:45:18;;;;;;;;;;;;;;;-147.27;100.00;65176.34;5106694;28;19924;-62
2023/09/02 10:47:44;;;;;;;;;;;;;;;-147.27;100.00;65176.34;5117767;28;19926;-62
2023/09/02 10:50:09;;;;;;;;;;;;;;;-147.27;100.00;65176.34;5117427;28;19916;-63
2023/09/02 10:52:35;;;;;;;;;;;;;;;-147.27;100.00;65176.34;5115621;28;19924;-63
2023/09/02 10:55:02;;;;;;;;;;;;;;;-147.27;100.00;65176.34;5115798;28;19970;-62
2023/09/02 10:57:28;;;;;;;;;;;;;;;-147.27;100.00;65176.34;5119341;28;19916;-63
2023/09/02 11:00:11;;;;;;;;;;;;;;;-147.27;100.00;65176.34;5114694;28;19943;-63
2023/09/02 11:02:40;;;;;;;;;;;;;;;-147.27;100.00;65176.34;5124841;28;19916;-63
2023/09/02 11:05:06;;;;;;;;;;;;;;;-147.27;100.00;65176.34;5108989;28;19920;-63
2023/09/02 11:07:33;;;;;;;;;;;;;;;-147.27;100.00;65176.34;5115177;28;19924;-62
2023/09/02 11:10:00;;;;;;;;;;;;;;;-147.27;100.00;65176.34;5115421;28;19923;-62
2023/09/02 11:12:27;;;;;;;;;;;;;;;-147.27;100.00;65176.34;5115063;28;19920;-62
2023/09/02 11:15:08;;;;;;;;;;;;;;;-147.27;100.00;65176.34;5112713;28;19911;-62
2023/09/02 11:17:36;;;;;;;;;;;;;;;-147.27;100.00;65176.34;5113885;28;19920;-63
2023/09/02 11:20:10;;;;;;;;;;;;;;;-147.27;100.00;65176.34;5115135;28;19923;-62
2023/09/02 11:22:45;;;;;;;;;;;;;;;-147.27;100.00;65176.34;5116697;28;19951;-58
2023/09/02 11:25:22;;;;;;;;;;;;;;;-147.27;100.00;65176.34;5122441;28;19912;-60
2023/09/02 11:27:47;;;;;;;;;;;;;;;-147.27;100.00;65176.34;5115059;28;19916;-59
2023/09/02 11:30:13;;;;;;;;;;;;;;;-147.27;100.00;65176.34;5113964;28;19916;-59
2023/09/02 11:32:43;;;;;;;;;;;;;;;-147.27;100.00;65176.34;5115002;28;20359;-59
2023/09/02 11:35:09;;;;;;;;;;;;;;;-147.27;100.00;65176.34;5113697;28;19900;-59
2023/09/02 11:37:35;;;;;;;;;;;;;;;-147.27;100.00;65176.34;5097588;28;19916;-59
2023/09/02 11:40:15;;;;;;;;;;;;;;;-147.27;100.00;65176.34;5115638;28;19922;-59
2023/09/02 11:42:49;;;;;;;;;;;;;;;-147.27;100.00;65176.34;5102782;28;19987;-59
2023/09/02 11:45:15;;;;;;;;;;;;;;;-147.27;100.00;65176.34;5099599;28;19927;-60
2023/09/02 11:47:41;;;;;;;;;;;;;;;-147.27;100.00;65176.34;5113599;28;19955;-59
2023/09/02 11:50:13;;;;;;;;;;;;;;;-147.27;100.00;65176.34;5119347;28;19912;-60
2023/09/02 11:52:39;;;;;;;;;;;;;;;-147.27;100.00;65176.34;5112696;28;19931;-60
2023/09/02 11:55:08;;;;;;;;;;;;;;;-147.27;100.00;65176.34;5082018;28;19980;-57
2023/09/02 11:57:33;;;;;;;;;;;;;;;-147.27;100.00;65176.34;5114626;28;19923;-58
2023/09/02 11:59:58;;;;;;;;;;;;;;;-147.27;100.00;65176.34;5113899;28;20019;-59
2023/09/02 12:02:25;;;;;;;;;;;;;;;-147.27;100.00;65176.34;5114570;28;19916;-59
2023/09/02 12:04:50;;;;;;;;;;;;;;;-147.27;100.00;65176.34;5126077;28;19930;-59
2023/09/02 12:07:17;;;;;;;;;;;;;;;-147.27;100.00;65176.34;5114715;28;19920;-60
2023/09/02 12:09:43;;;;;;;;;;;;;;;-147.27;100.00;65176.34;5128257;28;19920;-58
2023/09/02 12:12:08;;;;;;;;;;;;;;;-147.27;100.00;65176.34;5122257;28;19995;-60
2023/09/02 12:14:40;;;;;;;;;;;;;;;-147.27;100.00;65176.34;5114247;28;19959;-59
2023/09/02 12:17:06;;;;;;;;;;;;;;;-147.27;100.00;65176.34;5114477;28;19920;-59